Time;durP1;ratioP1;P1;durP2;ratioP2;P2;SDS_P1;SDS_P2;PMS_P1;PMS_P2;Temp;Humidity;BMP_temperature;BMP_pressure;BME280_temperature;BME280_humidity;BME280_pressure;Samples;Min_cycle;Max_cycle;Signal;HPM_P1;HPM_P2
2023/07/01 00:02:09;;;;;;;13.63;7.57;;;;;;;20.24;90.81;94978.78;4345028;32;20178;-57
2023/07/01 00:04:34;;;;;;;7.60;6.87;;;;;;;20.25;91.13;94969.56;4341397;32;20180;-59
2023/07/01 00:07:00;;;;;;;5.80;5.40;;;;;;;20.30;90.41;94973.88;4357874;32;20231;-57
2023/07/01 00:09:25;;;;;;;10.00;8.93;;;;;;;20.16;91.41;94964.41;4349062;32;20204;-58
2023/07/01 00:11:51;;;;;;;7.70;7.03;;;;;;;20.26;90.67;94971.13;4356716;32;20227;-57
2023/07/01 00:14:16;;;;;;;6.63;6.17;;;;;;;20.26;90.97;94971.13;4345162;32;20221;-57
2023/07/01 00:16:41;;;;;;;7.97;7.30;;;;;;;20.19;91.65;94969.09;4357576;32;20203;-58
2023/07/01 00:19:07;;;;;;;8.20;7.43;;;;;;;20.25;90.78;94969.56;4348275;32;20235;-57
2023/07/01 00:21:32;;;;;;;6.40;5.90;;;;;;;20.10;92.23;94970.50;4359827;32;20193;-58
2023/07/01 00:23:58;;;;;;;7.50;6.23;;;;;;;20.14;92.01;94966.72;4358165;32;20203;-57
2023/07/01 00:26:23;;;;;;;9.33;6.73;;;;;;;20.13;92.08;94972.47;4348714;32;20192;-56
2023/07/01 00:28:49;;;;;;;6.97;6.30;;;;;;;20.22;91.11;94970.28;4361631;32;20181;-58
2023/07/01 00:31:14;;;;;;;8.77;7.93;;;;;;;20.21;91.99;94974.91;4348816;32;20236;-55
2023/07/01 00:33:39;;;;;;;7.27;6.47;;;;;;;20.19;92.14;94976.41;4346409;32;20219;-57
2023/07/01 00:36:05;;;;;;;7.10;6.40;;;;;;;20.16;91.92;94975.19;4346921;32;20326;-57
2023/07/01 00:38:30;;;;;;;6.60;6.00;;;;;;;20.20;91.69;94972.56;4346390;32;20248;-57
2023/07/01 00:40:56;;;;;;;6.47;5.93;;;;;;;20.12;92.60;94970.91;4349334;32;20209;-57
2023/07/01 00:43:21;;;;;;;7.00;6.30;;;;;;;20.09;93.18;94974.34;4341445;32;20253;-55
2023/07/01 00:45:46;;;;;;;6.53;5.97;;;;;;;20.13;92.66;94970.56;4353469;32;20220;-56
2023/07/01 00:48:30;;;;;;;7.20;6.60;;;;;;;20.18;92.81;94966.75;4361265;32;20247;-57
2023/07/01 00:50:55;;;;;;;5.93;5.43;;;;;;;20.14;93.25;94968.66;4353394;32;20235;-56
2023/07/01 00:53:21;;;;;;;9.60;7.93;;;;;;;20.07;93.85;94968.53;4357202;32;20201;-57
2023/07/01 00:55:47;;;;;;;6.73;5.40;;;;;;;20.08;93.72;94962.00;4354485;32;20194;-57
2023/07/01 00:58:13;;;;;;;6.57;6.07;;;;;;;20.10;93.53;94957.81;4358074;32;20227;-57
2023/07/01 01:00:38;;;;;;;7.60;6.97;;;;;;;20.08;93.60;94964.69;4357713;32;20215;-56
2023/07/01 01:03:21;;;;;;;5.40;5.10;;;;;;;20.10;93.42;94968.59;4358927;32;20189;-57
2023/07/01 01:05:56;;;;;;;5.63;5.33;;;;;;;20.14;93.25;94963.25;4345056;32;20271;-57
2023/07/01 01:08:28;;;;;;;6.40;5.90;;;;;;;20.05;94.42;94962.72;4343090;32;20188;-57
2023/07/01 01:10:56;;;;;;;6.83;6.27;;;;;;;19.99;94.82;94973.03;4347260;32;20309;-57
2023/07/01 01:13:24;;;;;;;14.73;5.83;;;;;;;20.04;94.63;94955.78;4357753;32;20204;-57
2023/07/01 01:15:50;;;;;;;5.63;5.33;;;;;;;20.07;94.57;94965.84;4345528;32;20232;-57
2023/07/01 01:18:16;;;;;;;6.90;6.27;;;;;;;20.13;93.95;94961.69;4343003;32;20185;-55
2023/07/01 01:20:43;;;;;;;5.57;5.27;;;;;;;20.18;93.54;94966.75;4361028;32;20185;-57
2023/07/01 01:23:43;;;;;;;8.30;7.50;;;;;;;20.24;93.00;94962.63;4339497;32;20210;-57
2023/07/01 01:26:26;;;;;;;5.97;5.47;;;;;;;20.12;94.07;94960.16;4339189;32;20227;-57
2023/07/01 01:28:54;;;;;;;9.03;7.23;;;;;;;20.10;94.11;94962.41;4333529;32;20262;-57
2023/07/01 01:31:21;;;;;;;8.47;7.73;;;;;;;20.10;94.11;94962.41;4315193;32;20211;-57
2023/07/01 01:33:48;;;;;;;6.77;6.13;;;;;;;20.01;94.72;94953.81;4315150;32;20197;-58
2023/07/01 01:36:30;;;;;;;6.87;6.27;;;;;;;19.96;95.07;94956.81;4264937;32;20186;-58
2023/07/01 01:39:05;;;;;;;6.80;6.10;;;;;;;19.99;94.95;94956.88;4335498;32;20192;-57
2023/07/01 01:41:54;;;;;;;6.60;6.03;;;;;;;19.99;94.61;94958.78;4324501;32;20185;-56
2023/07/01 01:44:37;;;;;;;8.13;7.33;;;;;;;20.00;94.54;94952.25;4348427;32;20201;-56
2023/07/01 01:47:05;;;;;;;9.73;7.57;;;;;;;20.07;93.97;94952.38;4329387;32;20239;-56
2023/07/01 01:49:34;;;;;;;7.77;7.03;;;;;;;20.13;93.80;94956.31;4361299;32;20244;-57
2023/07/01 01:52:03;;;;;;;7.73;7.30;;;;;;;20.00;94.66;94958.41;4321148;32;20193;-57
2023/07/01 01:54:30;;;;;;;9.57;7.67;;;;;;;20.03;94.52;94962.31;4296709;32;20208;-57
2023/07/01 01:56:57;;;;;;;8.77;8.03;;;;;;;20.00;94.73;94947.66;4339456;32;20299;-57
2023/07/01 01:59:24;;;;;;;7.27;6.67;;;;;;;19.98;94.39;94958.00;4337209;32;20220;-58
2023/07/01 02:01:51;;;;;;;7.30;6.53;;;;;;;20.08;94.21;94959.31;4347153;32;20219;-57
2023/07/01 02:04:18;;;;;;;9.53;7.27;;;;;;;20.06;93.87;94956.97;4336701;32;20199;-57
2023/07/01 02:06:46;;;;;;;6.93;6.33;;;;;;;20.13;93.61;94957.09;4342711;32;20198;-57
2023/07/01 02:09:12;;;;;;;5.93;5.30;;;;;;;20.08;94.01;94952.00;4344120;32;20239;-57
2023/07/01 02:11:39;;;;;;;7.00;6.50;;;;;;;20.04;93.86;94955.78;4318847;32;20252;-57
2023/07/01 02:14:04;;;;;;;8.80;7.30;;;;;;;20.05;93.71;94949.25;4323958;32;20193;-57
2023/07/01 02:16:33;;;;;;;6.40;5.90;;;;;;;20.01;94.13;94959.19;4350694;32;20196;-58
2023/07/01 02:19:00;;;;;;;6.27;5.77;;;;;;;19.85;94.52;94951.28;4329173;32;20197;-57
2023/07/01 02:21:29;;;;;;;5.97;5.40;;;;;;;20.04;93.30;94947.69;4316058;32;20196;-57
2023/07/01 02:23:57;;;;;;;6.73;6.03;;;;;;;20.15;92.21;94954.03;4315511;32;20354;-57
2023/07/01 02:26:24;;;;;;;7.10;6.40;;;;;;;20.17;91.36;94960.59;4326474;32;20240;-57
2023/07/01 02:28:51;;;;;;;4.63;4.43;;;;;;;20.12;91.41;94960.94;4325573;32;20264;-57
2023/07/01 02:31:19;;;;;;;8.83;5.60;;;;;;;20.15;91.30;94948.66;4338239;32;20251;-57
2023/07/01 02:33:49;;;;;;;5.97;5.13;;;;;;;20.13;90.63;94959.00;4347876;32;20193;-57
2023/07/01 02:36:15;;;;;;;3.50;3.30;;;;;;;20.07;90.67;94958.53;4340680;32;20255;-58
2023/07/01 02:38:40;;;;;;;3.93;3.73;;;;;;;19.99;90.71;94958.78;4342741;32;20228;-57
2023/07/01 02:41:05;;;;;;;4.10;3.77;;;;;;;19.88;91.39;94964.78;4320728;32;20227;-56
2023/07/01 02:43:35;;;;;;;4.83;4.47;;;;;;;20.00;91.21;94963.03;4345130;32;20205;-57
2023/07/01 02:46:05;;;;;;;9.33;5.70;;;;;;;19.89;91.11;94969.03;4341877;32;20201;-57
2023/07/01 02:48:32;;;;;;;3.57;3.37;;;;;;;19.91;90.80;94966.00;4355931;32;20224;-57
2023/07/01 02:50:58;;;;;;;6.60;3.83;;;;;;;19.80;90.87;94965.81;4311799;32;20213;-58
2023/07/01 02:53:24;;;;;;;3.53;3.33;;;;;;;19.88;90.56;94970.19;4329773;32;20358;-57
2023/07/01 02:55:52;;;;;;;3.43;3.03;;;;;;;19.83;90.69;94965.09;4348985;32;20211;-57
2023/07/01 02:58:22;;;;;;;13.37;4.70;;;;;;;19.79;91.42;94971.53;4336047;32;20216;-57
2023/07/01 03:00:49;;;;;;;6.27;4.43;;;;;;;19.75;91.12;94968.00;4344347;32;20197;-57
2023/07/01 03:03:17;;;;;;;3.80;3.43;;;;;;;19.76;90.98;94974.97;4318243;32;20205;-57
2023/07/01 03:05:44;;;;;;;3.03;2.83;;;;;;;19.78;90.47;94970.78;4307623;32;20189;-57
2023/07/01 03:08:09;;;;;;;4.00;3.23;;;;;;;19.70;91.17;94971.81;4326862;32;20201;-57
2023/07/01 03:10:35;;;;;;;2.57;2.47;;;;;;;19.66;90.96;94978.25;4351815;32;20259;-58
2023/07/01 03:13:02;;;;;;;6.87;3.67;;;;;;;19.67;90.88;94979.81;4343898;32;20212;-55
2023/07/01 03:15:28;;;;;;;3.23;2.93;;;;;;;19.68;90.48;94973.31;4334957;32;20201;-57
2023/07/01 03:17:53;;;;;;;3.90;3.60;;;;;;;19.51;91.41;94972.66;4292513;32;20301;-55
2023/07/01 03:20:26;;;;;;;3.33;2.83;;;;;;;19.64;90.73;94981.31;4313997;32;20205;-57
2023/07/01 03:22:57;;;;;;;2.37;2.27;;;;;;;19.64;90.85;94983.22;4325505;32;20228;-57
2023/07/01 03:25:25;;;;;;;1.90;1.90;;;;;;;19.64;90.39;94986.69;4311021;32;20302;-57
2023/07/01 03:27:50;;;;;;;2.13;2.03;;;;;;;19.65;89.75;94985.56;4324571;32;20228;-57
2023/07/01 03:30:19;;;;;;;3.83;2.90;;;;;;;19.61;89.57;94984.72;4336233;32;20213;-57
2023/07/01 03:32:47;;;;;;;3.27;2.97;;;;;;;19.54;89.72;94990.75;4344542;32;20202;-57
2023/07/01 03:35:15;;;;;;;2.57;2.47;;;;;;;19.49;89.83;94987.56;4316675;32;20245;-55
2023/07/01 03:37:43;;;;;;;2.80;2.33;;;;;;;19.43;90.36;94991.69;4329844;32;20189;-57
2023/07/01 03:40:13;;;;;;;2.90;2.70;;;;;;;19.42;90.21;94995.50;4349502;32;20246;-57
2023/07/01 03:42:43;;;;;;;2.30;2.20;;;;;;;19.45;89.97;94997.47;4311005;32;20205;-56
2023/07/01 03:45:11;;;;;;;2.83;2.63;;;;;;;19.42;89.80;95000.87;4346022;32;20189;-57
2023/07/01 03:47:46;;;;;;;3.10;2.90;;;;;;;19.36;90.21;94995.00;4335081;32;20188;-57
2023/07/01 03:50:14;;;;;;;2.03;1.93;;;;;;;19.38;89.67;94995.44;4328117;32;20193;-57
2023/07/01 03:52:42;;;;;;;2.57;2.43;;;;;;;19.30;89.74;94993.75;4346177;32;20205;-57
2023/07/01 03:55:13;;;;;;;1.90;1.80;;;;;;;19.22;90.22;95006.28;4344519;32;20268;-57
2023/07/01 03:57:40;;;;;;;2.33;1.97;;;;;;;19.14;89.97;95004.59;4334891;32;20257;-57
2023/07/01 04:00:17;;;;;;;2.03;1.57;;;;;;;19.24;90.06;94997.88;4311906;32;20190;-56
2023/07/01 04:02:51;;;;;;;0.87;0.87;;;;;;;19.27;89.93;94997.16;4315182;32;20275;-57
2023/07/01 04:05:18;;;;;;;2.37;2.27;;;;;;;19.23;89.95;95001.69;4346285;32;20217;-57
2023/07/01 04:07:46;;;;;;;2.27;2.17;;;;;;;19.27;89.67;95004.47;4339690;32;20232;-56
2023/07/01 04:10:12;;;;;;;2.47;2.37;;;;;;;19.15;90.16;95000.78;4339338;32;20224;-57
2023/07/01 04:12:39;;;;;;;1.20;1.20;;;;;;;19.08;90.48;94997.97;4321922;32;20197;-55
2023/07/01 04:15:11;;;;;;;1.23;1.23;;;;;;;19.00;90.97;95004.31;4318066;32;20212;-57
2023/07/01 04:17:42;;;;;;;1.03;1.03;;;;;;;19.06;91.18;95005.59;4332633;32;20209;-57
2023/07/01 04:20:13;;;;;;;1.33;1.23;;;;;;;19.05;91.41;95012.12;4309884;32;20198;-57
2023/07/01 04:22:38;;;;;;;2.20;2.10;;;;;;;19.15;90.69;95011.53;4325930;32;20202;-57
2023/07/01 04:25:08;;;;;;;1.77;1.67;;;;;;;19.09;90.65;95002.22;4338938;32;20244;-57
2023/07/01 04:27:34;;;;;;;1.93;1.70;;;;;;;19.03;90.98;95009.00;4274763;32;20194;-61
2023/07/01 04:30:02;;;;;;;1.30;1.30;;;;;;;19.08;91.02;95006.03;4317465;32;20221;-55
2023/07/01 04:32:29;;;;;;;1.60;1.50;;;;;;;19.16;90.43;95005.00;4343444;32;20212;-57
2023/07/01 04:34:55;;;;;;;1.30;1.30;;;;;;;19.04;90.67;94999.03;4340934;32;20201;-58
2023/07/01 04:37:23;;;;;;;0.70;0.70;;;;;;;19.13;90.30;95003.03;4320707;32;20215;-57
2023/07/01 04:39:50;;;;;;;1.10;1.10;;;;;;;19.20;89.90;95008.56;4337841;32;20208;-57
2023/07/01 04:42:16;;;;;;;2.00;1.40;;;;;;;19.17;89.56;95003.88;4308371;32;20197;-57
2023/07/01 04:44:53;;;;;;;0.90;0.90;;;;;;;19.10;89.45;95006.47;4314132;32;20293;-58
2023/07/01 04:47:23;;;;;;;1.30;1.27;;;;;;;19.16;89.00;95007.72;4335042;32;20196;-57
2023/07/01 04:49:52;;;;;;;1.67;1.57;;;;;;;19.06;89.43;95008.28;4335611;32;20234;-55
2023/07/01 04:52:24;;;;;;;3.00;1.73;;;;;;;19.14;88.81;95009.19;4337469;32;20193;-56
2023/07/01 04:54:53;;;;;;;1.10;1.10;;;;;;;19.12;89.09;95006.09;4341261;32;20227;-57
2023/07/01 04:57:21;;;;;;;1.57;1.47;;;;;;;19.17;89.36;95008.50;4317668;32;20197;-57
2023/07/01 04:59:48;;;;;;;1.40;1.00;;;;;;;19.15;89.74;95005.38;4337888;32;20197;-56
2023/07/01 05:02:13;;;;;;;1.50;1.50;;;;;;;19.06;89.91;95008.28;4334664;32;20232;-57
2023/07/01 05:04:39;;;;;;;0.83;0.83;;;;;;;19.19;89.34;95017.75;4326233;32;20207;-57
2023/07/01 05:07:08;;;;;;;0.60;0.60;;;;;;;19.12;89.96;95012.22;4347988;32;20205;-57
2023/07/01 05:09:34;;;;;;;0.50;0.50;;;;;;;19.12;90.09;95019.56;4350759;32;20201;-58
2023/07/01 05:12:00;;;;;;;1.43;1.33;;;;;;;19.29;89.34;95023.72;4358827;32;20189;-57
2023/07/01 05:14:26;;;;;;;1.80;1.70;;;;;;;19.29;89.63;95031.78;4335687;32;20197;-57
2023/07/01 05:16:52;;;;;;;1.37;1.37;;;;;;;19.31;89.56;95027.59;4324927;32;20193;-57
2023/07/01 05:19:19;;;;;;;1.87;1.30;;;;;;;19.26;89.54;95027.09;4313797;32;20236;-57
2023/07/01 05:21:53;;;;;;;1.60;1.50;;;;;;;19.16;90.33;95031.91;4345259;32;20263;-57
2023/07/01 05:24:21;;;;;;;1.57;1.47;;;;;;;19.11;90.02;95032.22;4311511;32;20202;-57
2023/07/01 05:26:49;;;;;;;3.30;1.50;;;;;;;19.23;89.86;95029.38;4342306;32;20254;-57
2023/07/01 05:29:16;;;;;;;2.00;1.90;;;;;;;19.19;90.12;95030.44;4324727;32;20229;-57
2023/07/01 05:31:41;;;;;;;3.33;1.90;;;;;;;18.95;91.07;95028.81;4300934;32;20236;-57
2023/07/01 05:34:09;;;;;;;1.20;1.20;;;;;;;19.13;90.89;95032.63;4351774;32;20229;-57
2023/07/01 05:36:37;;;;;;;1.00;1.00;;;;;;;19.20;90.27;95038.16;4357630;32;20192;-57
2023/07/01 05:39:03;;;;;;;1.50;1.40;;;;;;;19.27;89.84;95034.81;4340296;32;20189;-56
2023/07/01 05:41:30;;;;;;;1.70;1.60;;;;;;;19.24;90.04;95038.22;4345868;32;20252;-57
2023/07/01 05:43:55;;;;;;;3.47;2.07;;;;;;;19.21;90.14;95041.63;4346834;32;20201;-57
2023/07/01 05:46:21;;;;;;;1.53;1.53;;;;;;;19.35;89.55;95041.09;4324953;32;20204;-57
2023/07/01 05:48:46;;;;;;;2.77;1.63;;;;;;;19.33;89.64;95043.41;4338380;32;20201;-57
2023/07/01 05:51:12;;;;;;;1.20;1.20;;;;;;;19.39;89.28;95045.41;4316574;32;20190;-57
2023/07/01 05:53:38;;;;;;;0.87;0.87;;;;;;;19.30;89.89;95049.47;4333869;32;20228;-57
2023/07/01 05:56:04;;;;;;;1.37;1.27;;;;;;;19.45;89.28;95045.91;4323580;32;20193;-60
2023/07/01 05:58:34;;;;;;;2.17;1.50;;;;;;;19.25;89.12;95042.47;4344762;32;20233;-57
2023/07/01 06:01:00;;;;;;;2.00;1.90;;;;;;;19.57;88.63;95043.06;4330742;32;20302;-57
2023/07/01 06:03:27;;;;;;;0.73;0.73;;;;;;;19.60;88.31;95049.66;4332738;32;20248;-57
2023/07/01 06:05:53;;;;;;;1.53;1.43;;;;;;;19.77;87.15;95049.19;4336634;32;20197;-56
2023/07/01 06:08:20;;;;;;;3.40;1.70;;;;;;;19.72;87.27;95047.59;4311678;32;20182;-57
2023/07/01 06:10:47;;;;;;;1.50;1.40;;;;;;;19.68;88.08;95045.97;4334755;32;20189;-57
2023/07/01 06:13:14;;;;;;;1.33;1.33;;;;;;;19.66;88.31;95045.56;4338108;32;20198;-57
2023/07/01 06:15:40;;;;;;;1.67;1.57;;;;;;;19.74;87.87;95050.72;4334544;32;20212;-58
2023/07/01 06:18:06;;;;;;;2.73;1.03;;;;;;;19.92;87.17;95047.56;4314623;32;20220;-56
2023/07/01 06:20:33;;;;;;;0.87;0.80;;;;;;;20.15;86.00;95045.63;4336501;32;20193;-56
2023/07/01 06:23:01;;;;;;;0.97;0.97;;;;;;;19.77;87.97;95047.28;4334668;32;20208;-56
2023/07/01 06:25:36;;;;;;;0.67;0.67;;;;;;;19.70;87.59;95046.41;4330753;32;20268;-56
2023/07/01 06:28:01;;;;;;;0.80;0.80;;;;;;;19.71;88.42;95048.75;4343500;32;20213;-56
2023/07/01 06:30:28;;;;;;;0.80;0.80;;;;;;;19.43;88.46;95050.88;4314452;32;20272;-56
2023/07/01 06:32:53;;;;;;;1.50;1.40;;;;;;;19.59;88.11;95050.81;4337021;32;21769;-57
2023/07/01 06:35:21;;;;;;;1.43;1.33;;;;;;;19.96;87.17;95042.97;4326277;32;20189;-57
2023/07/01 06:37:47;;;;;;;6.03;1.50;;;;;;;19.89;87.24;95044.44;4270650;32;20187;-56
2023/07/01 06:40:14;;;;;;;1.50;1.50;;;;;;;19.92;86.87;95050.25;4322475;32;20197;-64
2023/07/01 06:42:40;;;;;;;1.30;1.30;;;;;;;19.35;89.27;95046.47;4348507;32;20205;-64
2023/07/01 06:45:08;;;;;;;1.53;0.87;;;;;;;19.06;91.00;95050.53;4339604;32;20208;-65
2023/07/01 06:47:36;;;;;;;1.77;1.67;;;;;;;18.92;91.88;95060.97;4334121;32;20190;-64
2023/07/01 06:50:03;;;;;;;9.67;1.90;;;;;;;18.47;93.66;95063.09;4333776;32;20208;-65
2023/07/01 06:52:30;;;;;;;1.70;1.60;;;;;;;18.07;95.42;95052.56;4311280;32;20197;-64
2023/07/01 06:54:57;;;;;;;1.10;1.10;;;;;;;18.21;96.20;95062.84;4294182;32;20403;-67
2023/07/01 06:57:22;;;;;;;1.83;1.70;;;;;;;18.00;97.30;95055.06;4340823;32;20189;-64
2023/07/01 06:59:49;;;;;;;1.40;1.30;;;;;;;17.99;97.50;95056.19;4335476;32;20204;-65
2023/07/01 07:02:19;;;;;;;1.43;1.33;;;;;;;18.02;97.86;95065.47;4333557;32;20225;-64
2023/07/01 07:04:45;;;;;;;1.87;1.77;;;;;;;17.92;98.81;95064.06;4312870;32;20237;-64
2023/07/01 07:07:12;;;;;;;1.70;1.60;;;;;;;17.87;98.56;95051.66;4334191;32;20200;-64
2023/07/01 07:09:37;;;;;;;1.57;1.47;;;;;;;17.86;98.87;95054.72;4332171;32;20189;-65
2023/07/01 07:12:04;;;;;;;1.03;1.03;;;;;;;18.00;98.75;95059.66;4339880;32;20193;-65
2023/07/01 07:14:32;;;;;;;1.10;1.10;;;;;;;18.12;98.39;95054.19;4316306;32;20202;-64
2023/07/01 07:16:58;;;;;;;1.00;1.00;;;;;;;18.09;98.32;95058.34;4329040;32;20330;-65
2023/07/01 07:19:25;;;;;;;1.23;1.23;;;;;;;18.02;98.62;95062.78;4341952;32;20304;-64
2023/07/01 07:21:52;;;;;;;1.40;1.37;;;;;;;17.96;97.86;95058.78;4329951;32;20221;-64
2023/07/01 07:24:19;;;;;;;2.17;2.07;;;;;;;18.08;98.58;95062.16;4321295;32;20242;-65
2023/07/01 07:27:18;;;;;;;1.43;1.43;;;;;;;18.04;97.75;95055.94;4285607;32;20202;-64
2023/07/01 07:29:46;;;;;;;1.53;1.43;;;;;;;18.23;97.18;95057.13;4331576;32;20245;-64
2023/07/01 07:32:12;;;;;;;1.37;1.37;;;;;;;18.26;97.18;95046.47;4345438;32;20190;-65
2023/07/01 07:34:39;;;;;;;0.97;0.80;;;;;;;18.39;95.56;95047.16;4315966;32;20264;-65
2023/07/01 07:37:07;;;;;;;1.60;1.50;;;;;;;18.37;96.67;95052.88;4316143;32;20248;-65
2023/07/01 07:39:33;;;;;;;0.60;0.60;;;;;;;18.26;97.36;95051.84;4320609;32;20208;-64
2023/07/01 07:41:59;;;;;;;1.93;1.73;;;;;;;18.12;96.70;95046.91;4336563;32;20250;-65
2023/07/01 07:44:26;;;;;;;1.47;1.47;;;;;;;18.34;96.68;95053.56;4285415;32;20221;-65
2023/07/01 07:46:54;;;;;;;0.93;0.93;;;;;;;18.45;96.57;95049.22;4336817;32;20211;-65
2023/07/01 07:49:20;;;;;;;1.60;1.47;;;;;;;18.41;96.68;95045.69;4317821;32;20242;-65
2023/07/01 07:51:46;;;;;;;2.23;1.37;;;;;;;18.37;96.55;95052.09;4334337;32;20205;-64
2023/07/01 07:54:11;;;;;;;1.73;1.60;;;;;;;18.48;96.45;95040.47;4329736;32;20239;-64
2023/07/01 07:56:36;;;;;;;0.67;0.67;;;;;;;18.54;95.74;95041.75;4332181;32;20245;-65
2023/07/01 07:59:07;;;;;;;2.07;1.97;;;;;;;18.59;95.79;95040.72;4340918;32;20197;-65
2023/07/01 08:01:35;;;;;;;1.23;1.23;;;;;;;18.81;95.90;95040.03;4343043;32;20216;-65
2023/07/01 08:04:02;;;;;;;1.17;1.13;;;;;;;18.80;94.66;95043.88;4357968;32;20201;-65
2023/07/01 08:06:31;;;;;;;1.97;1.87;;;;;;;18.88;91.62;95039.44;4328674;32;20249;-65
2023/07/01 08:08:59;;;;;;;1.07;1.07;;;;;;;18.96;92.57;95038.41;4337439;32;20242;-65
2023/07/01 08:11:25;;;;;;;3.83;1.73;;;;;;;19.07;90.56;95036.75;4338076;32;20281;-65
2023/07/01 08:13:52;;;;;;;1.47;1.47;;;;;;;19.04;90.03;95037.44;4297342;32;20228;-65
2023/07/01 08:16:17;;;;;;;0.57;0.57;;;;;;;19.22;88.91;95038.56;4343365;32;20197;-65
2023/07/01 08:18:44;;;;;;;0.90;0.90;;;;;;;18.99;89.64;95028.88;4329647;32;20228;-65
2023/07/01 08:21:10;;;;;;;2.23;1.47;;;;;;;19.10;90.06;95036.03;4340357;32;20205;-65
2023/07/01 08:23:37;;;;;;;1.87;1.63;;;;;;;19.19;88.82;95025.06;4333625;32;20188;-65
2023/07/01 08:26:04;;;;;;;1.63;1.23;;;;;;;19.34;88.89;95028.78;4331791;32;20217;-65
2023/07/01 08:28:34;;;;;;;1.67;1.57;;;;;;;19.17;87.20;95032.69;4338605;32;20205;-65
2023/07/01 08:31:01;;;;;;;1.30;1.20;;;;;;;19.04;84.72;95025.91;4343309;32;20217;-65
2023/07/01 08:33:28;;;;;;;1.33;1.33;;;;;;;19.16;85.80;95021.16;4304801;32;20204;-65
2023/07/01 08:36:02;;;;;;;4.60;1.50;;;;;;;19.20;87.68;95016.63;4331248;32;20312;-64
2023/07/01 08:38:30;;;;;;;0.70;0.70;;;;;;;19.22;86.26;95018.97;4335423;32;20280;-65
2023/07/01 08:41:18;;;;;;;1.20;1.10;;;;;;;19.42;84.27;95019.72;4327125;32;20300;-64
2023/07/01 08:43:50;;;;;;;1.03;1.03;;;;;;;19.28;83.17;95014.88;4279809;32;20235;-65
2023/07/01 08:46:19;;;;;;;0.83;0.83;;;;;;;19.31;80.76;95008.78;4290933;32;20190;-65
2023/07/01 08:48:46;;;;;;;1.43;1.33;;;;;;;19.38;81.20;95008.09;4345687;32;20225;-65
2023/07/01 08:51:45;;;;;;;1.23;1.23;;;;;;;19.51;81.65;95006.84;4319550;32;20279;-65
2023/07/01 08:54:18;;;;;;;1.13;1.13;;;;;;;19.49;80.07;95009.09;4340579;32;20200;-65
2023/07/01 08:56:48;;;;;;;1.20;1.10;;;;;;;19.68;82.86;95005.59;4324349;32;20193;-65
2023/07/01 08:59:15;;;;;;;0.77;0.77;;;;;;;19.79;81.39;95006.53;4325464;32;20189;-65
2023/07/01 09:01:48;;;;;;;0.80;0.80;;;;;;;19.77;77.69;95012.28;4303596;32;20182;-65
2023/07/01 09:04:15;;;;;;;4.40;1.50;;;;;;;19.83;77.40;95008.16;4337066;32;20193;-65
2023/07/01 09:06:45;;;;;;;1.33;1.23;;;;;;;19.83;78.16;95008.16;4333429;32;20344;-65
2023/07/01 09:09:12;;;;;;;1.77;1.67;;;;;;;19.88;79.82;95010.56;4303376;32;20194;-65
2023/07/01 09:11:43;;;;;;;0.77;0.77;;;;;;;19.85;79.48;95005.91;4300782;32;20201;-65
2023/07/01 09:14:10;;;;;;;0.43;0.43;;;;;;;19.84;75.76;95009.72;4347238;32;20207;-65
2023/07/01 09:16:36;;;;;;;0.83;0.83;;;;;;;19.96;74.98;95005.28;4323363;32;20190;-65
2023/07/01 09:19:10;;;;;;;2.43;0.60;;;;;;;20.14;76.29;94995.59;4325649;32;20181;-65
2023/07/01 09:21:41;;;;;;;0.90;0.90;;;;;;;20.10;73.15;94990.12;4309817;32;20225;-65
2023/07/01 09:24:08;;;;;;;2.77;0.90;;;;;;;20.12;75.54;94989.78;4321877;32;20201;-65
2023/07/01 09:26:37;;;;;;;1.53;1.00;;;;;;;20.06;74.62;94988.53;4355944;32;20193;-65
2023/07/01 09:29:44;;;;;;;0.60;0.60;;;;;;;20.10;74.85;94984.75;4337640;32;20219;-65
2023/07/01 09:32:29;;;;;;;0.83;0.83;;;;;;;20.13;76.60;94988.63;4318174;32;20197;-65
2023/07/01 09:34:57;;;;;;;0.70;0.70;;;;;;;20.01;81.34;94981.53;4316347;32;20292;-65
2023/07/01 09:37:26;;;;;;;0.83;0.80;;;;;;;19.96;77.37;94989.91;4304352;32;20233;-65
2023/07/01 09:39:53;;;;;;;0.37;0.37;;;;;;;20.07;76.28;94979.31;4326473;32;20299;-65
2023/07/01 09:42:21;;;;;;;1.97;1.00;;;;;;;20.16;72.13;94983.28;4349114;32;20194;-64
2023/07/01 09:45:08;;;;;;;0.30;0.30;;;;;;;20.03;72.66;94989.25;4358274;32;20181;-65
2023/07/01 09:47:36;;;;;;;1.23;1.23;;;;;;;20.23;72.08;94983.41;4312488;32;20174;-65
2023/07/01 09:50:02;;;;;;;1.07;1.07;;;;;;;20.27;72.32;94990.75;4311011;32;20197;-65
2023/07/01 09:52:43;;;;;;;0.50;0.50;;;;;;;20.19;70.20;94982.56;4329954;32;20223;-65
2023/07/01 09:55:11;;;;;;;1.13;1.13;;;;;;;20.27;71.17;94979.97;4322303;32;20185;-65
2023/07/01 09:57:37;;;;;;;0.77;0.77;;;;;;;20.29;73.47;94970.41;4319170;32;20205;-65
2023/07/01 10:00:15;;;;;;;0.43;0.43;;;;;;;20.44;76.80;94972.16;4343154;32;20219;-65
2023/07/01 10:02:44;;;;;;;0.73;0.73;;;;;;;20.40;74.30;94978.66;4328272;32;20189;-65
2023/07/01 10:05:12;;;;;;;0.87;0.87;;;;;;;20.20;73.46;94972.56;4341936;32;20197;-65
2023/07/01 10:07:40;;;;;;;3.40;1.40;;;;;;;20.20;75.65;94967.94;4329655;32;20233;-65
2023/07/01 10:10:18;;;;;;;0.93;0.90;;;;;;;20.10;75.09;94973.19;4304075;32;20262;-66
2023/07/01 10:12:48;;;;;;;0.53;0.53;;;;;;;20.12;75.25;94968.22;4324075;32;20193;-65
2023/07/01 10:15:30;;;;;;;0.63;0.63;;;;;;;20.02;74.75;94966.12;4311651;32;20192;-65
2023/07/01 10:17:57;;;;;;;1.23;1.13;;;;;;;20.21;76.46;94956.03;4333138;32;20290;-65
2023/07/01 10:20:34;;;;;;;1.40;1.37;;;;;;;20.21;75.81;94957.94;4320622;32;20190;-65
2023/07/01 10:23:02;;;;;;;9.93;1.57;;;;;;;20.43;75.71;94954.44;4342695;32;20229;-65
2023/07/01 10:25:42;;;;;;;0.70;0.70;;;;;;;20.62;74.40;94947.34;4330807;32;20333;-65
2023/07/01 10:28:12;;;;;;;0.87;0.87;;;;;;;20.65;74.68;94943.94;4353021;32;20193;-65
2023/07/01 10:30:44;;;;;;;0.70;0.70;;;;;;;20.64;75.33;94955.87;4307064;32;20241;-65
2023/07/01 10:33:33;;;;;;;0.40;0.40;;;;;;;20.69;75.16;94950.16;4328827;32;20220;-65
2023/07/01 10:36:17;;;;;;;1.37;1.33;;;;;;;20.81;74.68;94949.91;4316421;32;20285;-65
2023/07/01 10:38:46;;;;;;;0.57;0.57;;;;;;;20.83;74.06;94951.09;4313038;32;20235;-65
2023/07/01 10:41:13;;;;;;;0.90;0.90;;;;;;;20.84;75.22;94949.16;4338191;32;20215;-65
2023/07/01 10:43:42;;;;;;;1.17;1.07;;;;;;;20.97;75.50;94950.50;4345160;32;20205;-65
2023/07/01 10:46:25;;;;;;;0.93;0.93;;;;;;;20.84;75.41;94944.56;4336791;32;20207;-65
2023/07/01 10:49:09;;;;;;;0.50;0.50;;;;;;;20.79;74.10;94938.72;4327855;32;20244;-65
2023/07/01 10:51:55;;;;;;;2.90;1.17;;;;;;;20.93;73.81;94944.28;4321767;32;20192;-65
2023/07/01 10:54:32;;;;;;;0.93;0.93;;;;;;;21.05;73.73;94929.75;4323872;32;20216;-65
2023/07/01 10:57:18;;;;;;;0.90;0.90;;;;;;;21.16;73.37;94931.44;4312835;32;20288;-65
2023/07/01 10:59:45;;;;;;;1.27;1.27;;;;;;;21.22;73.92;94923.78;4331111;32;20324;-65
2023/07/01 11:02:41;;;;;;;0.63;0.63;;;;;;;21.30;73.77;94928.12;4329893;32;20216;-65
2023/07/01 11:05:08;;;;;;;0.60;0.60;;;;;;;21.44;73.17;94916.66;4321088;32;20247;-65
2023/07/01 11:07:36;;;;;;;0.50;0.50;;;;;;;21.40;70.73;94913.19;4307584;32;20189;-65
2023/07/01 11:10:09;;;;;;;0.97;0.97;;;;;;;21.25;71.19;94904.94;4278811;33;20198;-65
2023/07/01 11:12:35;;;;;;;0.60;0.60;;;;;;;21.41;71.02;94903.91;4322922;32;20190;-65
2023/07/01 11:15:03;;;;;;;0.50;0.50;;;;;;;21.47;69.87;94902.44;4330260;32;20248;-65
2023/07/01 11:17:29;;;;;;;0.90;0.90;;;;;;;21.56;69.90;94894.81;4343892;32;20182;-65
2023/07/01 11:19:57;;;;;;;0.70;0.70;;;;;;;21.54;69.48;94897.09;4335470;32;20291;-65
2023/07/01 11:22:25;;;;;;;1.00;1.00;;;;;;;21.50;68.15;94888.97;4340713;32;20189;-65
2023/07/01 11:25:03;;;;;;;1.37;1.27;;;;;;;21.44;68.07;94900.47;4338852;32;20249;-65
2023/07/01 11:27:31;;;;;;;0.30;0.30;;;;;;;21.44;68.64;94892.38;4318677;32;20207;-65
2023/07/01 11:29:57;;;;;;;0.53;0.53;;;;;;;21.53;68.78;94890.16;4316869;32;20287;-65
2023/07/01 11:32:24;;;;;;;0.80;0.80;;;;;;;21.55;68.91;94887.84;4349582;32;20197;-65
2023/07/01 11:34:57;;;;;;;0.40;0.40;;;;;;;21.53;69.12;94884.75;4332401;32;20201;-64
2023/07/01 11:37:28;;;;;;;0.77;0.77;;;;;;;21.64;69.48;94882.88;4347865;32;20217;-64
2023/07/01 11:39:55;;;;;;;0.63;0.63;;;;;;;21.65;70.52;94881.75;4343235;32;20283;-65
2023/07/01 11:42:25;;;;;;;0.70;0.70;;;;;;;21.66;70.26;94883.28;4343988;32;20197;-65
2023/07/01 11:45:03;;;;;;;2.17;1.27;;;;;;;21.48;69.15;94877.00;4333780;32;20216;-65